sensor_id;sensor_type;location;lat;lon;timestamp;pressure;altitude;pressure_sealevel;temperature;humidity
69982;BME280;57319;56.274;43.980;2023-03-19T00:02:20;101379.66;;;-5.71;66.29
69982;BME280;57319;56.274;43.980;2023-03-19T00:04:46;101378.78;;;-5.72;66.14
69982;BME280;57319;56.274;43.980;2023-03-19T00:07:13;101379.66;;;-5.71;66.33
69982;BME280;57319;56.274;43.980;2023-03-19T00:09:39;101381.28;;;-5.72;66.23
69982;BME280;57319;56.274;43.980;2023-03-19T00:12:05;101390.69;;;-5.69;66.08
69982;BME280;57319;56.274;43.980;2023-03-19T00:14:31;101389.69;;;-5.71;65.89
69982;BME280;57319;56.274;43.980;2023-03-19T00:16:56;101394.72;;;-5.71;66.12
69982;BME280;57319;56.274;43.980;2023-03-19T00:19:22;101388.47;;;-5.76;65.87
69982;BME280;57319;56.274;43.980;2023-03-19T00:21:47;101382.19;;;-5.82;66.20
69982;BME280;57319;56.274;43.980;2023-03-19T00:24:13;101381.44;;;-5.91;66.64
69982;BME280;57319;56.274;43.980;2023-03-19T00:26:40;101386.22;;;-5.94;66.94
69982;BME280;57319;56.274;43.980;2023-03-19T00:29:06;101380.78;;;-6.00;66.98
69982;BME280;57319;56.274;43.980;2023-03-19T00:31:31;101383.28;;;-6.00;67.43
69982;BME280;57319;56.274;43.980;2023-03-19T00:33:58;101390.38;;;-5.94;66.66
69982;BME280;57319;56.274;43.980;2023-03-19T00:36:25;101379.88;;;-6.01;67.34
69982;BME280;57319;56.274;43.980;2023-03-19T00:38:52;101384.53;;;-6.05;67.56
69982;BME280;57319;56.274;43.980;2023-03-19T00:41:18;101386.31;;;-6.04;67.46
69982;BME280;57319;56.274;43.980;2023-03-19T00:43:45;101386.81;;;-6.08;67.73
69982;BME280;57319;56.274;43.980;2023-03-19T00:46:11;101383.03;;;-6.14;68.10
69982;BME280;57319;56.274;43.980;2023-03-19T00:48:37;101386.19;;;-6.06;67.81
69982;BME280;57319;56.274;43.980;2023-03-19T00:51:03;101383.41;;;-6.09;67.23
69982;BME280;57319;56.274;43.980;2023-03-19T00:53:29;101374.78;;;-6.12;68.01
69982;BME280;57319;56.274;43.980;2023-03-19T00:55:55;101382.94;;;-6.15;68.62
69982;BME280;57319;56.274;43.980;2023-03-19T00:58:20;101372.50;;;-6.20;68.87
69982;BME280;57319;56.274;43.980;2023-03-19T01:00:46;101380.66;;;-6.12;68.53
69982;BME280;57319;56.274;43.980;2023-03-19T01:03:13;101374.91;;;-6.11;68.20
69982;BME280;57319;56.274;43.980;2023-03-19T01:05:39;101376.38;;;-6.13;68.67
69982;BME280;57319;56.274;43.980;2023-03-19T01:08:04;101372.16;;;-6.14;68.79
69982;BME280;57319;56.274;43.980;2023-03-19T01:10:32;101369.38;;;-6.17;68.89
69982;BME280;57319;56.274;43.980;2023-03-19T01:12:58;101369.88;;;-6.21;68.95
69982;BME280;57319;56.274;43.980;2023-03-19T01:15:23;101366.16;;;-6.26;68.93
69982;BME280;57319;56.274;43.980;2023-03-19T01:17:49;101360.63;;;-6.33;69.44
69982;BME280;57319;56.274;43.980;2023-03-19T01:20:15;101361.13;;;-6.37;69.70
69982;BME280;57319;56.274;43.980;2023-03-19T01:22:43;101350.47;;;-6.34;69.58
69982;BME280;57319;56.274;43.980;2023-03-19T01:25:11;101353.50;;;-6.38;69.32
69982;BME280;57319;56.274;43.980;2023-03-19T01:27:38;101351.38;;;-6.44;69.94
69982;BME280;57319;56.274;43.980;2023-03-19T01:30:05;101347.38;;;-6.52;70.09
69982;BME280;57319;56.274;43.980;2023-03-19T01:32:32;101355.00;;;-6.51;70.08
69982;BME280;57319;56.274;43.980;2023-03-19T01:34:58;101342.75;;;-6.58;70.30
69982;BME280;57319;56.274;43.980;2023-03-19T01:37:23;101348.50;;;-6.59;70.40
69982;BME280;57319;56.274;43.980;2023-03-19T01:39:49;101347.13;;;-6.55;70.51
69982;BME280;57319;56.274;43.980;2023-03-19T01:42:15;101346.22;;;-6.56;70.35
69982;BME280;57319;56.274;43.980;2023-03-19T01:44:41;101344.47;;;-6.57;70.51
69982;BME280;57319;56.274;43.980;2023-03-19T01:49:39;101344.38;;;-6.69;70.68
69982;BME280;57319;56.274;43.980;2023-03-19T01:52:06;101342.84;;;-6.67;70.54
69982;BME280;57319;56.274;43.980;2023-03-19T01:54:33;101346.13;;;-6.68;70.67
69982;BME280;57319;56.274;43.980;2023-03-19T01:57:04;101343.34;;;-6.71;70.92
69982;BME280;57319;56.274;43.980;2023-03-19T01:59:34;101336.72;;;-6.70;70.64
69982;BME280;57319;56.274;43.980;2023-03-19T02:04:43;101331.44;;;-6.73;71.02
69982;BME280;57319;56.274;43.980;2023-03-19T02:07:11;101338.22;;;-6.72;71.14
69982;BME280;57319;56.274;43.980;2023-03-19T02:09:38;101328.56;;;-6.78;71.40
69982;BME280;57319;56.274;43.980;2023-03-19T02:12:06;101333.72;;;-6.76;71.51
69982;BME280;57319;56.274;43.980;2023-03-19T02:14:33;101330.84;;;-6.81;71.23
69982;BME280;57319;56.274;43.980;2023-03-19T02:16:58;101328.09;;;-6.84;71.45
69982;BME280;57319;56.274;43.980;2023-03-19T02:19:39;101324.44;;;-6.88;71.54
69982;BME280;57319;56.274;43.980;2023-03-19T02:22:09;101332.06;;;-6.86;71.59
69982;BME280;57319;56.274;43.980;2023-03-19T02:24:47;101329.09;;;-6.92;71.76
69982;BME280;57319;56.274;43.980;2023-03-19T02:27:14;101330.56;;;-6.94;71.83
69982;BME280;57319;56.274;43.980;2023-03-19T02:29:40;101324.28;;;-7.00;72.26
69982;BME280;57319;56.274;43.980;2023-03-19T02:32:06;101323.91;;;-7.04;72.34
69982;BME280;57319;56.274;43.980;2023-03-19T02:34:33;101318.66;;;-7.07;72.20
69982;BME280;57319;56.274;43.980;2023-03-19T02:37:04;101322.78;;;-7.08;72.54
69982;BME280;57319;56.274;43.980;2023-03-19T02:39:40;101319.03;;;-7.13;72.66
69982;BME280;57319;56.274;43.980;2023-03-19T02:42:10;101320.66;;;-7.13;73.05
69982;BME280;57319;56.274;43.980;2023-03-19T02:44:36;101314.78;;;-7.14;72.61
69982;BME280;57319;56.274;43.980;2023-03-19T02:47:02;101314.66;;;-7.16;72.86
69982;BME280;57319;56.274;43.980;2023-03-19T02:49:28;101316.38;;;-7.14;72.70
69982;BME280;57319;56.274;43.980;2023-03-19T02:51:54;101315.03;;;-7.11;73.05
69982;BME280;57319;56.274;43.980;2023-03-19T02:54:20;101310.63;;;-7.13;72.79
69982;BME280;57319;56.274;43.980;2023-03-19T02:56:46;101307.50;;;-7.11;72.66
69982;BME280;57319;56.274;43.980;2023-03-19T02:59:12;101306.66;;;-7.11;72.99
69982;BME280;57319;56.274;43.980;2023-03-19T03:01:37;101310.16;;;-7.09;72.62
69982;BME280;57319;56.274;43.980;2023-03-19T03:04:03;101310.25;;;-7.08;72.87
69982;BME280;57319;56.274;43.980;2023-03-19T03:06:29;101298.66;;;-7.07;72.69
69982;BME280;57319;56.274;43.980;2023-03-19T03:08:55;101313.03;;;-7.05;72.53
69982;BME280;57319;56.274;43.980;2023-03-19T03:11:21;101305.78;;;-7.02;72.52
69982;BME280;57319;56.274;43.980;2023-03-19T03:13:47;101297.00;;;-7.07;72.38
69982;BME280;57319;56.274;43.980;2023-03-19T03:16:12;101296.16;;;-7.07;72.73
69982;BME280;57319;56.274;43.980;2023-03-19T03:18:38;101298.03;;;-7.05;72.68
69982;BME280;57319;56.274;43.980;2023-03-19T03:21:04;101292.88;;;-7.06;72.70
69982;BME280;57319;56.274;43.980;2023-03-19T03:23:29;101300.13;;;-7.09;72.77
69982;BME280;57319;56.274;43.980;2023-03-19T03:25:55;101290.13;;;-7.09;72.80
69982;BME280;57319;56.274;43.980;2023-03-19T03:28:21;101293.75;;;-7.06;72.41
69982;BME280;57319;56.274;43.980;2023-03-19T03:30:46;101300.03;;;-7.01;72.49
69982;BME280;57319;56.274;43.980;2023-03-19T03:33:13;101289.25;;;-7.00;72.47
69982;BME280;57319;56.274;43.980;2023-03-19T03:35:39;101296.88;;;-6.98;72.45
69982;BME280;57319;56.274;43.980;2023-03-19T03:38:05;101290.13;;;-6.99;72.46
69982;BME280;57319;56.274;43.980;2023-03-19T03:40:30;101292.16;;;-6.95;72.24
69982;BME280;57319;56.274;43.980;2023-03-19T03:42:57;101272.63;;;-6.99;72.59
69982;BME280;57319;56.274;43.980;2023-03-19T03:45:23;101274.75;;;-6.93;72.33
69982;BME280;57319;56.274;43.980;2023-03-19T03:47:48;101273.09;;;-6.93;71.98
69982;BME280;57319;56.274;43.980;2023-03-19T03:50:15;101272.25;;;-6.93;72.30
69982;BME280;57319;56.274;43.980;2023-03-19T03:52:41;101272.84;;;-6.86;72.36
69982;BME280;57319;56.274;43.980;2023-03-19T03:55:07;101267.22;;;-6.83;71.77
69982;BME280;57319;56.274;43.980;2023-03-19T03:57:33;101269.50;;;-6.76;71.83
69982;BME280;57319;56.274;43.980;2023-03-19T03:59:59;101267.59;;;-6.68;71.49
69982;BME280;57319;56.274;43.980;2023-03-19T04:02:25;101262.47;;;-6.70;71.42
69982;BME280;57319;56.274;43.980;2023-03-19T04:04:51;101258.19;;;-6.60;71.08
69982;BME280;57319;56.274;43.980;2023-03-19T04:07:17;101258.78;;;-6.53;70.86
69982;BME280;57319;56.274;43.980;2023-03-19T04:09:43;101269.31;;;-6.46;70.73
69982;BME280;57319;56.274;43.980;2023-03-19T04:12:11;101258.41;;;-6.37;70.37
69982;BME280;57319;56.274;43.980;2023-03-19T04:14:37;101257.13;;;-6.32;70.54
69982;BME280;57319;56.274;43.980;2023-03-19T04:17:02;101259.75;;;-6.30;70.05
69982;BME280;57319;56.274;43.980;2023-03-19T04:19:29;101251.00;;;-6.35;69.94
69982;BME280;57319;56.274;43.980;2023-03-19T04:21:56;101251.50;;;-6.29;69.93
69982;BME280;57319;56.274;43.980;2023-03-19T04:24:22;101250.47;;;-6.21;69.45
69982;BME280;57319;56.274;43.980;2023-03-19T04:26:48;101244.56;;;-6.21;69.38
69982;BME280;57319;56.274;43.980;2023-03-19T04:29:14;101241.41;;;-6.19;69.65
69982;BME280;57319;56.274;43.980;2023-03-19T04:31:40;101246.81;;;-6.14;69.29
69982;BME280;57319;56.274;43.980;2023-03-19T04:34:06;101235.16;;;-6.14;69.18
69982;BME280;57319;56.274;43.980;2023-03-19T04:36:32;101228.75;;;-6.10;68.78
69982;BME280;57319;56.274;43.980;2023-03-19T04:38:57;101235.75;;;-6.06;69.25
69982;BME280;57319;56.274;43.980;2023-03-19T04:41:23;101238.25;;;-6.06;68.37
69982;BME280;57319;56.274;43.980;2023-03-19T04:43:49;101231.09;;;-6.01;68.82
69982;BME280;57319;56.274;43.980;2023-03-19T04:46:14;101233.91;;;-5.97;67.89
69982;BME280;57319;56.274;43.980;2023-03-19T04:48:41;101221.84;;;-5.90;68.30
69982;BME280;57319;56.274;43.980;2023-03-19T04:51:06;101236.25;;;-5.88;68.22
69982;BME280;57319;56.274;43.980;2023-03-19T04:53:36;101232.22;;;-5.86;68.40
69982;BME280;57319;56.274;43.980;2023-03-19T04:56:03;101230.84;;;-5.82;67.73
69982;BME280;57319;56.274;43.980;2023-03-19T04:58:29;101230.31;;;-5.78;67.27
69982;BME280;57319;56.274;43.980;2023-03-19T05:00:54;101234.81;;;-5.74;67.68
69982;BME280;57319;56.274;43.980;2023-03-19T05:03:20;101231.25;;;-5.66;67.30
69982;BME280;57319;56.274;43.980;2023-03-19T05:05:46;101221.56;;;-5.61;66.92
69982;BME280;57319;56.274;43.980;2023-03-19T05:08:11;101221.03;;;-5.57;66.51
69982;BME280;57319;56.274;43.980;2023-03-19T05:10:38;101221.78;;;-5.58;66.00
69982;BME280;57319;56.274;43.980;2023-03-19T05:13:05;101226.06;;;-5.57;66.91
69982;BME280;57319;56.274;43.980;2023-03-19T05:15:31;101219.88;;;-5.50;66.40
69982;BME280;57319;56.274;43.980;2023-03-19T05:17:57;101217.47;;;-5.49;65.84
69982;BME280;57319;56.274;43.980;2023-03-19T05:20:23;101212.81;;;-5.44;65.98
69982;BME280;57319;56.274;43.980;2023-03-19T05:22:51;101215.97;;;-5.47;65.48
69982;BME280;57319;56.274;43.980;2023-03-19T05:25:17;101210.75;;;-5.38;65.45
69982;BME280;57319;56.274;43.980;2023-03-19T05:27:44;101214.16;;;-5.25;65.91
69982;BME280;57319;56.274;43.980;2023-03-19T05:30:10;101209.09;;;-5.15;65.29
69982;BME280;57319;56.274;43.980;2023-03-19T05:32:37;101209.84;;;-5.16;64.73
69982;BME280;57319;56.274;43.980;2023-03-19T05:35:03;101205.06;;;-5.01;64.51
69982;BME280;57319;56.274;43.980;2023-03-19T05:37:29;101202.78;;;-4.98;64.13
69982;BME280;57319;56.274;43.980;2023-03-19T05:39:56;101208.22;;;-4.92;64.44
69982;BME280;57319;56.274;43.980;2023-03-19T05:42:21;101198.97;;;-4.81;64.27
69982;BME280;57319;56.274;43.980;2023-03-19T05:44:47;101201.19;;;-4.74;63.55
69982;BME280;57319;56.274;43.980;2023-03-19T05:47:13;101201.50;;;-4.69;62.96
69982;BME280;57319;56.274;43.980;2023-03-19T05:49:38;101197.44;;;-4.67;62.83
69982;BME280;57319;56.274;43.980;2023-03-19T05:52:04;101195.16;;;-4.52;62.85
69982;BME280;57319;56.274;43.980;2023-03-19T05:54:30;101185.88;;;-4.41;62.23
69982;BME280;57319;56.274;43.980;2023-03-19T05:56:56;101188.72;;;-4.37;61.78
69982;BME280;57319;56.274;43.980;2023-03-19T05:59:21;101186.72;;;-4.29;61.59
69982;BME280;57319;56.274;43.980;2023-03-19T06:01:47;101176.66;;;-4.17;61.50
69982;BME280;57319;56.274;43.980;2023-03-19T06:04:13;101173.69;;;-4.12;60.32
69982;BME280;57319;56.274;43.980;2023-03-19T06:06:38;101170.97;;;-4.15;60.29
69982;BME280;57319;56.274;43.980;2023-03-19T06:09:04;101167.84;;;-3.99;60.63
69982;BME280;57319;56.274;43.980;2023-03-19T06:11:29;101165.13;;;-4.02;59.09
69982;BME280;57319;56.274;43.980;2023-03-19T06:13:56;101167.72;;;-3.88;59.80
69982;BME280;57319;56.274;43.980;2023-03-19T06:16:21;101166.91;;;-3.76;58.94
69982;BME280;57319;56.274;43.980;2023-03-19T06:18:47;101163.06;;;-3.70;58.59
69982;BME280;57319;56.274;43.980;2023-03-19T06:21:13;101157.09;;;-3.59;58.99
69982;BME280;57319;56.274;43.980;2023-03-19T06:23:38;101159.94;;;-3.54;58.30
69982;BME280;57319;56.274;43.980;2023-03-19T06:26:05;101155.88;;;-3.52;57.30
69982;BME280;57319;56.274;43.980;2023-03-19T06:28:31;101152.22;;;-3.44;57.79
69982;BME280;57319;56.274;43.980;2023-03-19T06:30:57;101150.78;;;-3.41;57.54
69982;BME280;57319;56.274;43.980;2023-03-19T06:33:23;101154.59;;;-3.34;56.97
69982;BME280;57319;56.274;43.980;2023-03-19T06:35:52;101151.31;;;-3.19;57.04
69982;BME280;57319;56.274;43.980;2023-03-19T06:38:18;101143.56;;;-3.22;56.77
69982;BME280;57319;56.274;43.980;2023-03-19T06:40:43;101142.78;;;-3.21;55.60
69982;BME280;57319;56.274;43.980;2023-03-19T06:43:09;101140.06;;;-3.25;56.07
69982;BME280;57319;56.274;43.980;2023-03-19T06:45:34;101144.75;;;-3.17;55.70
69982;BME280;57319;56.274;43.980;2023-03-19T06:48:00;101138.94;;;-3.03;56.18
69982;BME280;57319;56.274;43.980;2023-03-19T06:50:26;101135.84;;;-2.99;55.60
69982;BME280;57319;56.274;43.980;2023-03-19T06:52:51;101140.69;;;-2.88;55.37
69982;BME280;57319;56.274;43.980;2023-03-19T06:55:17;101129.06;;;-2.86;55.35
69982;BME280;57319;56.274;43.980;2023-03-19T06:57:48;101132.06;;;-2.79;54.72
69982;BME280;57319;56.274;43.980;2023-03-19T07:00:15;101134.47;;;-2.67;55.29
69982;BME280;57319;56.274;43.980;2023-03-19T07:02:42;101126.63;;;-2.58;54.17
69982;BME280;57319;56.274;43.980;2023-03-19T07:05:09;101122.13;;;-2.49;54.19
69982;BME280;57319;56.274;43.980;2023-03-19T07:07:35;101121.75;;;-2.42;53.38
69982;BME280;57319;56.274;43.980;2023-03-19T07:10:00;101120.09;;;-2.41;53.35
69982;BME280;57319;56.274;43.980;2023-03-19T07:12:26;101114.28;;;-2.40;53.77
69982;BME280;57319;56.274;43.980;2023-03-19T07:14:55;101112.94;;;-2.35;52.39
69982;BME280;57319;56.274;43.980;2023-03-19T07:17:22;101103.44;;;-2.39;52.42
69982;BME280;57319;56.274;43.980;2023-03-19T07:19:48;101096.22;;;-2.33;51.40
69982;BME280;57319;56.274;43.980;2023-03-19T07:22:13;101097.47;;;-2.26;50.85
69982;BME280;57319;56.274;43.980;2023-03-19T07:24:39;101097.53;;;-2.11;50.72
69982;BME280;57319;56.274;43.980;2023-03-19T07:27:05;101098.78;;;-2.05;50.98
69982;BME280;57319;56.274;43.980;2023-03-19T07:29:31;101102.88;;;-1.92;50.39
69982;BME280;57319;56.274;43.980;2023-03-19T07:31:57;101085.84;;;-1.81;49.91
69982;BME280;57319;56.274;43.980;2023-03-19T07:34:22;101090.47;;;-1.74;49.11
69982;BME280;57319;56.274;43.980;2023-03-19T07:36:48;101077.25;;;-1.69;49.55
69982;BME280;57319;56.274;43.980;2023-03-19T07:39:13;101073.19;;;-1.67;48.85
69982;BME280;57319;56.274;43.980;2023-03-19T07:41:39;101082.66;;;-1.63;48.68
69982;BME280;57319;56.274;43.980;2023-03-19T07:44:05;101080.66;;;-1.54;49.09
69982;BME280;57319;56.274;43.980;2023-03-19T07:46:31;101075.44;;;-1.42;48.69
69982;BME280;57319;56.274;43.980;2023-03-19T07:48:57;101079.81;;;-1.25;48.63
69982;BME280;57319;56.274;43.980;2023-03-19T07:51:22;101083.78;;;-1.13;48.22
69982;BME280;57319;56.274;43.980;2023-03-19T07:53:48;101075.28;;;-1.30;47.46
69982;BME280;57319;56.274;43.980;2023-03-19T07:56:13;101074.66;;;-1.26;47.74
69982;BME280;57319;56.274;43.980;2023-03-19T07:58:39;101086.25;;;-1.15;48.67
69982;BME280;57319;56.274;43.980;2023-03-19T08:01:06;101074.59;;;-0.96;47.00
69982;BME280;57319;56.274;43.980;2023-03-19T08:03:32;101082.97;;;-0.82;47.43
69982;BME280;57319;56.274;43.980;2023-03-19T08:05:58;101073.41;;;-0.72;47.30
69982;BME280;57319;56.274;43.980;2023-03-19T08:08:24;101061.50;;;-0.74;46.86
69982;BME280;57319;56.274;43.980;2023-03-19T08:10:52;101065.09;;;-0.86;45.85
69982;BME280;57319;56.274;43.980;2023-03-19T08:13:18;101065.59;;;-0.76;47.05
69982;BME280;57319;56.274;43.980;2023-03-19T08:15:44;101057.09;;;-0.62;46.90
69982;BME280;57319;56.274;43.980;2023-03-19T08:18:09;101060.25;;;-0.66;46.94
69982;BME280;57319;56.274;43.980;2023-03-19T08:20:35;101050.44;;;-0.76;46.65
69982;BME280;57319;56.274;43.980;2023-03-19T08:23:01;101048.56;;;-0.64;47.46
69982;BME280;57319;56.274;43.980;2023-03-19T08:25:26;101047.31;;;-0.56;47.07
69982;BME280;57319;56.274;43.980;2023-03-19T08:27:57;101045.41;;;-0.60;47.34
69982;BME280;57319;56.274;43.980;2023-03-19T08:30:22;101040.75;;;-0.52;46.94
69982;BME280;57319;56.274;43.980;2023-03-19T08:32:48;101042.59;;;-0.49;48.08
69982;BME280;57319;56.274;43.980;2023-03-19T08:35:15;101037.97;;;-0.40;47.78
69982;BME280;57319;56.274;43.980;2023-03-19T08:37:41;101033.56;;;-0.28;48.38
69982;BME280;57319;56.274;43.980;2023-03-19T08:40:07;101030.72;;;-0.18;47.15
69982;BME280;57319;56.274;43.980;2023-03-19T08:42:33;101023.78;;;-0.22;46.80
69982;BME280;57319;56.274;43.980;2023-03-19T08:44:59;101026.84;;;-0.11;48.24
69982;BME280;57319;56.274;43.980;2023-03-19T08:47:25;101014.63;;;-0.02;48.12
69982;BME280;57319;56.274;43.980;2023-03-19T08:49:51;101019.31;;;0.07;48.70
69982;BME280;57319;56.274;43.980;2023-03-19T08:52:17;101020.50;;;0.14;46.90
69982;BME280;57319;56.274;43.980;2023-03-19T08:54:43;101005.19;;;0.29;48.09
69982;BME280;57319;56.274;43.980;2023-03-19T08:57:09;101012.22;;;0.35;47.35
69982;BME280;57319;56.274;43.980;2023-03-19T08:59:34;100998.97;;;0.40;47.52
69982;BME280;57319;56.274;43.980;2023-03-19T09:02:00;100994.78;;;0.41;48.31
69982;BME280;57319;56.274;43.980;2023-03-19T09:04:26;100999.19;;;0.45;46.69
69982;BME280;57319;56.274;43.980;2023-03-19T09:06:52;100993.63;;;0.52;47.24
69982;BME280;57319;56.274;43.980;2023-03-19T09:09:19;100987.53;;;0.48;46.27
69982;BME280;57319;56.274;43.980;2023-03-19T09:11:45;100983.13;;;0.62;46.85
69982;BME280;57319;56.274;43.980;2023-03-19T09:14:11;100984.81;;;0.80;47.83
69982;BME280;57319;56.274;43.980;2023-03-19T09:16:38;100981.19;;;0.75;46.74
69982;BME280;57319;56.274;43.980;2023-03-19T09:19:05;100973.84;;;0.81;47.29
69982;BME280;57319;56.274;43.980;2023-03-19T09:21:30;100971.25;;;0.79;47.75
69982;BME280;57319;56.274;43.980;2023-03-19T09:23:56;100973.00;;;0.80;46.70
69982;BME280;57319;56.274;43.980;2023-03-19T09:26:22;100958.56;;;0.79;47.34
69982;BME280;57319;56.274;43.980;2023-03-19T09:28:48;100956.25;;;0.84;46.80
69982;BME280;57319;56.274;43.980;2023-03-19T09:31:13;100959.34;;;0.96;47.06
69982;BME280;57319;56.274;43.980;2023-03-19T09:33:39;100954.78;;;1.07;46.34
69982;BME280;57319;56.274;43.980;2023-03-19T09:36:04;100949.44;;;1.21;47.60
69982;BME280;57319;56.274;43.980;2023-03-19T09:38:30;100937.44;;;1.36;46.71
69982;BME280;57319;56.274;43.980;2023-03-19T09:46:21;100930.22;;;1.45;45.52
69982;BME280;57319;56.274;43.980;2023-03-19T09:49:01;100919.09;;;1.42;45.95
69982;BME280;57319;56.274;43.980;2023-03-19T09:51:42;100932.44;;;1.38;46.99
69982;BME280;57319;56.274;43.980;2023-03-19T09:54:34;100920.34;;;1.51;46.76
69982;BME280;57319;56.274;43.980;2023-03-19T09:57:03;100915.22;;;1.71;45.57
69982;BME280;57319;56.274;43.980;2023-03-19T09:59:29;100914.56;;;1.75;45.80
69982;BME280;57319;56.274;43.980;2023-03-19T10:04:43;100900.56;;;1.64;45.65
69982;BME280;57319;56.274;43.980;2023-03-19T10:15:49;100890.28;;;1.82;45.93
69982;BME280;57319;56.274;43.980;2023-03-19T10:18:18;100890.22;;;1.80;46.26
69982;BME280;57319;56.274;43.980;2023-03-19T10:26:03;100876.19;;;1.89;46.41
69982;BME280;57319;56.274;43.980;2023-03-19T10:28:29;100871.50;;;1.78;46.60
69982;BME280;57319;56.274;43.980;2023-03-19T10:34:07;100874.63;;;1.92;47.01
69982;BME280;57319;56.274;43.980;2023-03-19T10:36:36;100859.81;;;2.03;47.02
69982;BME280;57319;56.274;43.980;2023-03-19T10:39:03;100863.88;;;1.98;48.48
69982;BME280;57319;56.274;43.980;2023-03-19T10:41:46;100854.19;;;2.10;47.69
69982;BME280;57319;56.274;43.980;2023-03-19T10:46:57;100856.53;;;2.27;47.47
69982;BME280;57319;56.274;43.980;2023-03-19T10:49:23;100846.22;;;2.24;46.53
69982;BME280;57319;56.274;43.980;2023-03-19T10:51:49;100847.78;;;2.43;46.92
69982;BME280;57319;56.274;43.980;2023-03-19T10:54:26;100843.50;;;2.42;47.48
69982;BME280;57319;56.274;43.980;2023-03-19T10:56:59;100838.59;;;2.69;47.22
69982;BME280;57319;56.274;43.980;2023-03-19T11:02:01;100832.34;;;3.08;45.41
69982;BME280;57319;56.274;43.980;2023-03-19T11:04:28;100824.78;;;3.35;44.50
69982;BME280;57319;56.274;43.980;2023-03-19T11:07:18;100826.28;;;3.04;44.65
69982;BME280;57319;56.274;43.980;2023-03-19T11:09:47;100832.19;;;3.27;45.36
69982;BME280;57319;56.274;43.980;2023-03-19T11:14:52;100816.41;;;4.77;41.55
69982;BME280;57319;56.274;43.980;2023-03-19T11:17:39;100824.06;;;5.76;40.32
69982;BME280;57319;56.274;43.980;2023-03-19T11:22:36;100812.78;;;6.41;38.10
69982;BME280;57319;56.274;43.980;2023-03-19T11:27:38;100810.53;;;5.45;39.43
69982;BME280;57319;56.274;43.980;2023-03-19T11:30:13;100806.28;;;5.12;39.91
69982;BME280;57319;56.274;43.980;2023-03-19T11:35:50;100798.41;;;6.46;39.41
69982;BME280;57319;56.274;43.980;2023-03-19T11:41:23;100793.41;;;5.41;39.65
69982;BME280;57319;56.274;43.980;2023-03-19T11:44:04;100795.94;;;4.74;41.26
69982;BME280;57319;56.274;43.980;2023-03-19T11:55:18;100775.16;;;9.19;36.27
69982;BME280;57319;56.274;43.980;2023-03-19T12:03:26;100765.56;;;10.13;32.99
69982;BME280;57319;56.274;43.980;2023-03-19T12:06:11;100761.13;;;9.84;32.32
69982;BME280;57319;56.274;43.980;2023-03-19T12:08:48;100753.84;;;9.27;33.41
69982;BME280;57319;56.274;43.980;2023-03-19T12:22:37;100724.28;;;9.88;32.10
69982;BME280;57319;56.274;43.980;2023-03-19T12:25:29;100712.44;;;10.19;31.52
69982;BME280;57319;56.274;43.980;2023-03-19T12:28:02;100702.94;;;10.11;32.23
69982;BME280;57319;56.274;43.980;2023-03-19T12:35:39;100704.94;;;11.32;30.16
69982;BME280;57319;56.274;43.980;2023-03-19T12:45:53;100706.03;;;6.31;38.23
69982;BME280;57319;56.274;43.980;2023-03-19T12:48:27;100706.16;;;5.59;39.61
69982;BME280;57319;56.274;43.980;2023-03-19T12:50:56;100694.22;;;5.21;40.12
69982;BME280;57319;56.274;43.980;2023-03-19T12:53:32;100695.19;;;5.25;40.37
69982;BME280;57319;56.274;43.980;2023-03-19T12:56:07;100696.75;;;5.20;41.41
69982;BME280;57319;56.274;43.980;2023-03-19T12:59:00;100698.03;;;6.15;39.94
69982;BME280;57319;56.274;43.980;2023-03-19T13:01:37;100706.13;;;6.35;39.31
69982;BME280;57319;56.274;43.980;2023-03-19T13:06:43;100685.75;;;6.87;38.10
69982;BME280;57319;56.274;43.980;2023-03-19T13:12:03;100693.16;;;6.27;39.18
69982;BME280;57319;56.274;43.980;2023-03-19T13:17:45;100688.13;;;4.17;41.65
69982;BME280;57319;56.274;43.980;2023-03-19T13:23:03;100683.19;;;3.37;44.56
69982;BME280;57319;56.274;43.980;2023-03-19T13:25:34;100676.06;;;3.27;44.69
69982;BME280;57319;56.274;43.980;2023-03-19T13:28:07;100668.22;;;3.19;45.83
69982;BME280;57319;56.274;43.980;2023-03-19T13:30:34;100667.06;;;3.09;46.70
69982;BME280;57319;56.274;43.980;2023-03-19T13:33:05;100660.19;;;2.81;46.38
69982;BME280;57319;56.274;43.980;2023-03-19T13:38:14;100660.25;;;2.58;47.20
69982;BME280;57319;56.274;43.980;2023-03-19T13:40:52;100647.31;;;2.50;47.51
69982;BME280;57319;56.274;43.980;2023-03-19T13:56:20;100609.75;;;1.93;48.32
69982;BME280;57319;56.274;43.980;2023-03-19T14:06:33;100593.34;;;1.38;51.12
69982;BME280;57319;56.274;43.980;2023-03-19T14:09:00;100600.72;;;1.32;51.42
69982;BME280;57319;56.274;43.980;2023-03-19T14:11:35;100587.50;;;1.18;52.22
69982;BME280;57319;56.274;43.980;2023-03-19T14:14:05;100592.22;;;1.09;52.90
69982;BME280;57319;56.274;43.980;2023-03-19T14:16:36;100591.34;;;1.08;52.76
69982;BME280;57319;56.274;43.980;2023-03-19T14:19:09;100581.94;;;1.06;53.21
69982;BME280;57319;56.274;43.980;2023-03-19T14:21:41;100585.25;;;1.03;52.71
69982;BME280;57319;56.274;43.980;2023-03-19T14:24:37;100582.97;;;0.88;52.74
69982;BME280;57319;56.274;43.980;2023-03-19T14:27:34;100581.75;;;0.78;52.74
69982;BME280;57319;56.274;43.980;2023-03-19T14:30:06;100585.19;;;0.80;53.91
69982;BME280;57319;56.274;43.980;2023-03-19T14:32:36;100587.84;;;0.83;53.57
69982;BME280;57319;56.274;43.980;2023-03-19T14:35:09;100580.00;;;0.77;53.83
69982;BME280;57319;56.274;43.980;2023-03-19T14:40:15;100588.28;;;0.73;53.29
69982;BME280;57319;56.274;43.980;2023-03-19T14:45:48;100579.88;;;0.53;52.93
69982;BME280;57319;56.274;43.980;2023-03-19T14:53:52;100575.97;;;0.40;54.29
69982;BME280;57319;56.274;43.980;2023-03-19T14:56:25;100572.56;;;0.40;54.24
69982;BME280;57319;56.274;43.980;2023-03-19T14:58:56;100567.19;;;0.32;54.80
69982;BME280;57319;56.274;43.980;2023-03-19T15:01:23;100563.97;;;0.36;55.26